createdAt,value
2022-09-09T00:00:54.968Z,11.77
2022-09-09T00:03:30.072Z,11.77
2022-09-09T00:06:10.411Z,11.77
2022-09-09T00:08:53.538Z,11.79
2022-09-09T00:11:31.860Z,11.82
2022-09-09T00:14:14.221Z,11.85
2022-09-09T00:16:50.752Z,11.84
2022-09-09T00:19:26.971Z,11.83
2022-09-09T00:22:18.193Z,11.82
2022-09-09T00:24:54.304Z,11.81
2022-09-09T00:27:34.864Z,11.78
2022-09-09T00:30:20.752Z,11.74
2022-09-09T00:32:52.873Z,11.69
2022-09-09T00:35:29.735Z,11.66
2022-09-09T00:38:12.122Z,11.62
2022-09-09T00:40:51.635Z,11.58
2022-09-09T00:43:31.997Z,11.57
2022-09-09T00:46:56.144Z,11.54
2022-09-09T00:49:45.305Z,11.53
2022-09-09T00:52:34.588Z,11.53
2022-09-09T00:55:19.873Z,11.54
2022-09-09T00:57:54.753Z,11.57
2022-09-09T01:00:27.430Z,11.57
2022-09-09T01:03:21.763Z,11.59
2022-09-09T01:06:04.312Z,11.59
2022-09-09T01:09:07.152Z,11.58
2022-09-09T01:11:53.693Z,11.57
2022-09-09T01:14:42.230Z,11.57
2022-09-09T01:17:23.457Z,11.58
2022-09-09T01:20:13.621Z,11.57
2022-09-09T01:23:14.674Z,11.58
2022-09-09T01:26:28.896Z,11.59
2022-09-09T01:29:01.570Z,11.60
2022-09-09T01:31:42.901Z,11.59
2022-09-09T01:34:14.681Z,11.62
2022-09-09T01:36:51.887Z,11.64
2022-09-09T01:39:22.500Z,11.63
2022-09-09T01:42:01.428Z,11.65
2022-09-09T01:44:33.110Z,11.64
2022-09-09T01:47:04.229Z,11.62
2022-09-09T01:49:34.604Z,11.60
2022-09-09T01:52:11.365Z,11.61
2022-09-09T01:54:42.311Z,11.59
2022-09-09T01:57:25.920Z,11.57
2022-09-09T02:00:07.749Z,11.55
2022-09-09T02:02:58.654Z,11.56
2022-09-09T02:05:40.739Z,11.54
2022-09-09T02:08:26.805Z,11.54
2022-09-09T02:11:09.224Z,11.59
2022-09-09T02:13:48.666Z,11.62
2022-09-09T02:16:26.880Z,11.62
2022-09-09T02:19:05.633Z,11.61
2022-09-09T02:22:02.131Z,11.59
2022-09-09T02:24:36.354Z,11.57
2022-09-09T02:27:17.264Z,11.56
2022-09-09T02:29:48.822Z,11.51
2022-09-09T02:32:25.042Z,11.48
2022-09-09T02:35:02.186Z,11.47
2022-09-09T02:37:38.936Z,11.44
2022-09-09T02:40:14.380Z,11.38
2022-09-09T02:42:49.813Z,11.35
2022-09-09T02:45:27.003Z,11.31
2022-09-09T02:48:05.814Z,11.29
2022-09-09T02:50:39.852Z,11.28
2022-09-09T02:53:19.291Z,11.27
2022-09-09T02:55:57.580Z,11.26
2022-09-09T02:58:28.090Z,11.23
2022-09-09T03:01:06.782Z,11.23
2022-09-09T03:03:36.552Z,11.21
2022-09-09T03:06:10.946Z,11.19
2022-09-09T03:08:43.411Z,11.18
2022-09-09T03:11:19.293Z,11.16
2022-09-09T03:13:49.840Z,11.13
2022-09-09T03:16:20.672Z,11.14
2022-09-09T03:18:53.229Z,11.10
2022-09-09T03:21:23.519Z,11.10
2022-09-09T03:23:53.505Z,11.12
2022-09-09T03:26:23.906Z,11.14
2022-09-09T03:28:54.206Z,11.14
2022-09-09T03:31:31.006Z,11.21
2022-09-09T03:34:01.421Z,11.23
2022-09-09T03:36:34.744Z,11.27
2022-09-09T03:39:05.834Z,11.28
2022-09-09T03:41:35.302Z,11.30
2022-09-09T03:44:05.637Z,11.35
2022-09-09T03:46:42.196Z,11.42
2022-09-09T03:49:12.205Z,11.46
2022-09-09T03:51:41.878Z,11.48
2022-09-09T03:54:13.043Z,11.50
2022-09-09T03:56:42.757Z,11.50
2022-09-09T03:59:15.269Z,11.48
2022-09-09T04:01:48.068Z,11.47
2022-09-09T04:04:17.488Z,11.47
2022-09-09T04:06:46.936Z,11.44
2022-09-09T04:09:16.533Z,11.44
2022-09-09T04:11:47.035Z,11.43
2022-09-09T04:14:17.928Z,11.49
2022-09-09T04:16:48.984Z,11.55
2022-09-09T04:19:18.788Z,11.60
2022-09-09T04:21:52.563Z,11.62
2022-09-09T04:24:24.348Z,11.68
2022-09-09T04:26:53.877Z,11.77
2022-09-09T04:29:23.772Z,11.83
2022-09-09T04:31:55.302Z,11.94
2022-09-09T04:34:24.855Z,12.02
2022-09-09T04:36:57.211Z,12.13
2022-09-09T04:39:27.119Z,12.22
2022-09-09T04:41:56.770Z,12.28
2022-09-09T04:44:26.173Z,12.34
2022-09-09T04:46:57.909Z,12.41
2022-09-09T04:49:27.960Z,12.47
2022-09-09T04:51:58.217Z,12.52
2022-09-09T04:54:29.349Z,12.59
2022-09-09T04:56:58.798Z,12.62
2022-09-09T04:59:29.284Z,12.65
2022-09-09T05:02:04.196Z,12.68
2022-09-09T05:04:34.065Z,12.71
2022-09-09T05:07:03.475Z,12.70
2022-09-09T05:09:32.921Z,12.73
2022-09-09T05:12:05.218Z,12.77
2022-09-09T05:14:38.377Z,12.79
2022-09-09T05:17:10.374Z,12.85
2022-09-09T05:19:41.268Z,12.91
2022-09-09T05:22:10.764Z,12.96
2022-09-09T05:24:45.802Z,13.01
2022-09-09T05:27:16.085Z,13.14
2022-09-09T05:29:48.656Z,13.18
2022-09-09T05:32:19.633Z,13.20
2022-09-09T05:34:52.543Z,13.23
2022-09-09T05:37:22.056Z,13.25
2022-09-09T05:39:52.612Z,13.28
2022-09-09T05:42:22.188Z,13.30
2022-09-09T05:44:55.233Z,13.32
2022-09-09T05:47:28.566Z,13.35
2022-09-09T05:49:58.505Z,13.39
2022-09-09T05:52:28.118Z,13.43
2022-09-09T05:55:00.176Z,13.45
2022-09-09T05:57:29.716Z,13.48
2022-09-09T05:59:59.143Z,13.51
2022-09-09T06:02:29.989Z,13.56
2022-09-09T06:05:00.698Z,13.60
2022-09-09T06:07:31.251Z,13.64
2022-09-09T06:10:01.003Z,13.71
2022-09-09T06:12:30.484Z,13.75
2022-09-09T06:14:59.977Z,13.80
2022-09-09T06:17:30.774Z,13.88
2022-09-09T06:20:00.629Z,13.93
2022-09-09T06:22:30.246Z,14.05
2022-09-09T06:25:00.906Z,14.21
2022-09-09T06:27:31.098Z,14.22
2022-09-09T06:30:00.905Z,14.23
2022-09-09T06:32:38.045Z,14.28
2022-09-09T06:35:09.155Z,14.30
2022-09-09T06:37:38.744Z,14.32
2022-09-09T06:40:11.628Z,14.39
2022-09-09T06:42:40.995Z,14.51
2022-09-09T06:45:26.447Z,14.57
2022-09-09T06:48:00.420Z,14.60
2022-09-09T06:50:29.918Z,14.60
2022-09-09T06:52:59.712Z,14.64
2022-09-09T06:55:29.213Z,14.59
2022-09-09T06:57:59.278Z,14.61
2022-09-09T07:00:29.579Z,14.60
2022-09-09T07:03:00.486Z,14.65
2022-09-09T07:05:30.336Z,14.68
2022-09-09T07:08:00.367Z,14.72
2022-09-09T07:10:30.002Z,14.81
2022-09-09T07:13:01.032Z,14.94
2022-09-09T07:15:31.034Z,15.02
2022-09-09T07:18:05.076Z,15.04
2022-09-09T07:20:34.620Z,15.08
2022-09-09T07:23:04.491Z,15.16
2022-09-09T07:25:33.905Z,15.20
2022-09-09T07:28:04.276Z,15.26
2022-09-09T07:30:33.749Z,15.33
2022-09-09T07:33:04.692Z,15.40
2022-09-09T07:35:34.881Z,15.48
2022-09-09T07:38:07.612Z,15.53
2022-09-09T07:40:38.070Z,15.58
2022-09-09T07:43:07.545Z,15.64
2022-09-09T07:45:37.660Z,15.64
2022-09-09T07:48:08.696Z,15.64
2022-09-09T07:50:38.101Z,15.62
2022-09-09T07:53:07.954Z,15.59
2022-09-09T07:55:37.975Z,15.51
2022-09-09T07:58:07.493Z,15.46
2022-09-09T08:00:37.309Z,15.39
2022-09-09T08:03:08.314Z,15.37
2022-09-09T08:05:40.541Z,15.35
2022-09-09T08:08:10.145Z,15.35
2022-09-09T08:10:39.582Z,15.38
2022-09-09T08:13:17.914Z,15.44
2022-09-09T08:15:50.107Z,15.52
2022-09-09T08:18:21.246Z,15.59
2022-09-09T08:20:50.878Z,15.67
2022-09-09T08:23:20.305Z,15.76
2022-09-09T08:25:51.058Z,15.87
2022-09-09T08:28:20.616Z,15.97
2022-09-09T08:30:50.235Z,16.05
2022-09-09T08:33:21.278Z,16.17
2022-09-09T08:35:53.802Z,16.25
2022-09-09T08:38:23.318Z,16.32
2022-09-09T08:41:02.069Z,16.39
2022-09-09T08:43:33.457Z,16.42
2022-09-09T08:46:13.678Z,16.51
2022-09-09T08:48:57.995Z,16.56
2022-09-09T08:51:32.245Z,16.64
2022-09-09T08:54:05.953Z,16.72
2022-09-09T08:56:37.057Z,16.75
2022-09-09T08:59:07.139Z,16.79
2022-09-09T09:01:56.995Z,16.84
2022-09-09T09:05:10.957Z,16.84
2022-09-09T09:08:01.817Z,16.82
2022-09-09T09:10:49.563Z,16.78
2022-09-09T09:13:43.025Z,16.67
2022-09-09T09:16:26.129Z,16.63
2022-09-09T09:18:56.721Z,16.56
2022-09-09T09:21:42.810Z,16.50
2022-09-09T09:24:22.273Z,16.47
2022-09-09T09:26:53.880Z,16.45
2022-09-09T09:29:26.797Z,16.40
2022-09-09T09:32:01.919Z,16.38
2022-09-09T09:34:31.558Z,16.37
2022-09-09T09:37:20.521Z,16.39
2022-09-09T09:40:05.490Z,16.46
2022-09-09T09:42:34.906Z,16.53
2022-09-09T09:45:19.125Z,16.58
2022-09-09T09:48:04.134Z,16.68
2022-09-09T09:50:51.271Z,16.63
2022-09-09T09:53:26.911Z,16.64
2022-09-09T09:56:04.438Z,16.73
2022-09-09T09:58:40.922Z,16.73
2022-09-09T10:01:26.338Z,16.72
2022-09-09T10:04:01.104Z,16.77
2022-09-09T10:06:38.966Z,16.85
2022-09-09T10:09:26.419Z,16.87
2022-09-09T10:12:08.291Z,16.89
2022-09-09T10:14:50.374Z,16.95
2022-09-09T10:17:28.925Z,17.02
2022-09-09T10:20:22.604Z,17.10
2022-09-09T10:22:54.844Z,17.12
2022-09-09T10:26:03.981Z,17.19
2022-09-09T10:28:59.101Z,17.23
2022-09-09T10:31:41.468Z,17.22
2022-09-09T10:34:42.535Z,17.23
2022-09-09T10:37:33.970Z,17.24
2022-09-09T10:40:33.800Z,17.27
2022-09-09T10:43:36.163Z,17.27
2022-09-09T10:46:16.975Z,17.31
2022-09-09T10:49:09.901Z,17.27
2022-09-09T10:51:50.605Z,17.33
2022-09-09T10:54:44.929Z,17.34
2022-09-09T10:57:29.367Z,17.45
2022-09-09T11:00:06.921Z,17.54
2022-09-09T11:02:38.127Z,17.65
2022-09-09T11:05:19.298Z,17.66
2022-09-09T11:08:01.071Z,17.70
2022-09-09T11:10:42.525Z,17.78
2022-09-09T11:13:20.516Z,17.90
2022-09-09T11:15:58.619Z,18.02
2022-09-09T11:18:31.491Z,18.11
2022-09-09T11:21:05.420Z,18.24
2022-09-09T11:23:43.236Z,18.36
2022-09-09T11:26:23.466Z,18.44
2022-09-09T11:29:48.666Z,18.57
2022-09-09T11:33:20.856Z,18.80
2022-09-09T11:36:13.498Z,18.95
2022-09-09T11:38:48.747Z,19.07
2022-09-09T11:41:21.640Z,19.06
2022-09-09T11:43:54.060Z,19.17
2022-09-09T11:46:36.434Z,19.27
2022-09-09T11:49:23.601Z,19.41
2022-09-09T11:51:53.016Z,19.43
2022-09-09T11:54:33.981Z,19.39
2022-09-09T11:57:26.861Z,19.40
2022-09-09T11:59:57.436Z,19.30
2022-09-09T12:02:31.071Z,19.36
2022-09-09T12:05:09.529Z,19.37
2022-09-09T12:07:45.093Z,19.41
2022-09-09T12:10:28.753Z,19.27
2022-09-09T12:13:10.193Z,19.11
2022-09-09T12:15:51.440Z,19.07
2022-09-09T12:18:27.972Z,19.06
2022-09-09T12:21:09.531Z,19.00
2022-09-09T12:23:50.206Z,18.96
2022-09-09T12:26:34.989Z,18.98
2022-09-09T12:29:23.430Z,19.02
2022-09-09T12:32:02.220Z,19.00
2022-09-09T12:34:42.881Z,18.96
2022-09-09T12:37:28.773Z,18.94
2022-09-09T12:40:00.371Z,18.91
2022-09-09T12:42:30.538Z,18.92
2022-09-09T12:45:03.913Z,18.99
2022-09-09T12:47:44.233Z,19.00
2022-09-09T12:50:22.702Z,18.93
2022-09-09T12:52:57.967Z,18.93
2022-09-09T12:55:34.509Z,18.79
2022-09-09T12:58:06.927Z,18.77
2022-09-09T13:00:37.253Z,18.76
2022-09-09T13:03:22.123Z,18.76
2022-09-09T13:05:52.393Z,18.80
2022-09-09T13:08:23.395Z,18.79
2022-09-09T13:11:02.108Z,18.82
2022-09-09T13:13:38.778Z,18.91
2022-09-09T13:16:22.963Z,19.09
2022-09-09T13:18:52.836Z,19.15
2022-09-09T13:21:33.449Z,19.24
2022-09-09T13:24:08.488Z,19.33
2022-09-09T13:26:39.481Z,19.77
2022-09-09T13:29:20.594Z,20.08
2022-09-09T13:31:53.533Z,20.22
2022-09-09T13:34:32.375Z,20.46
2022-09-09T13:37:06.753Z,20.46
2022-09-09T13:39:39.763Z,20.35
2022-09-09T13:42:28.801Z,20.17
2022-09-09T13:45:00.909Z,20.14
2022-09-09T13:47:35.273Z,20.08
2022-09-09T13:50:21.929Z,19.94
2022-09-09T13:52:52.452Z,19.91
2022-09-09T13:55:26.370Z,19.87
2022-09-09T13:57:59.801Z,19.83
2022-09-09T14:00:33.282Z,19.94
2022-09-09T14:03:03.422Z,20.13
2022-09-09T14:05:35.522Z,20.31
2022-09-09T14:08:07.130Z,20.41
2022-09-09T14:10:37.912Z,20.69
2022-09-09T14:13:08.783Z,20.89
2022-09-09T14:15:38.310Z,20.80
2022-09-09T14:18:07.752Z,20.59
2022-09-09T14:20:37.365Z,20.43
2022-09-09T14:23:07.593Z,20.28
2022-09-09T14:25:38.648Z,20.19
2022-09-09T14:28:10.832Z,20.11
2022-09-09T14:30:42.423Z,19.99
2022-09-09T14:33:15.556Z,19.93
2022-09-09T14:35:45.547Z,19.85
2022-09-09T14:38:18.921Z,19.82
2022-09-09T14:40:50.053Z,19.73
2022-09-09T14:43:19.541Z,19.65
2022-09-09T14:45:49.314Z,19.85
2022-09-09T14:48:18.976Z,19.99
2022-09-09T14:50:48.336Z,20.15
2022-09-09T14:53:19.190Z,20.48
2022-09-09T14:55:50.030Z,21.15
2022-09-09T14:58:19.397Z,21.81
2022-09-09T15:00:48.817Z,22.36
2022-09-09T15:03:18.199Z,22.79
2022-09-09T15:05:47.566Z,23.03
2022-09-09T15:08:18.434Z,22.61
2022-09-09T15:10:49.181Z,22.09
2022-09-09T15:13:18.937Z,21.81
2022-09-09T15:15:50.915Z,21.52
2022-09-09T15:18:20.270Z,21.26
2022-09-09T15:20:49.759Z,20.99
2022-09-09T15:23:19.112Z,20.72
2022-09-09T15:25:57.705Z,20.55
2022-09-09T15:28:27.245Z,20.56
2022-09-09T15:30:58.077Z,20.80
2022-09-09T15:33:28.074Z,21.13
2022-09-09T15:35:57.498Z,21.10
2022-09-09T15:38:28.157Z,20.96
2022-09-09T15:40:59.482Z,20.75
2022-09-09T15:43:29.210Z,20.46
2022-09-09T15:46:27.360Z,20.24
2022-09-09T15:49:00.360Z,20.07
2022-09-09T15:51:45.380Z,19.87
2022-09-09T15:54:19.792Z,19.74
2022-09-09T15:56:56.854Z,19.73
2022-09-09T15:59:30.000Z,19.76
2022-09-09T16:02:00.979Z,19.78
2022-09-09T16:04:32.130Z,19.65
2022-09-09T16:07:05.520Z,19.57
2022-09-09T16:09:36.435Z,19.43
2022-09-09T16:12:10.774Z,19.34
2022-09-09T16:14:40.434Z,19.25
2022-09-09T16:17:10.090Z,19.14
2022-09-09T16:19:39.537Z,18.97
2022-09-09T16:22:09.441Z,18.84
2022-09-09T16:24:39.263Z,18.73
2022-09-09T16:27:10.179Z,18.61
2022-09-09T16:29:39.661Z,18.48
2022-09-09T16:32:09.350Z,18.42
2022-09-09T16:34:38.777Z,18.33
2022-09-09T16:37:08.203Z,18.28
2022-09-09T16:39:37.615Z,18.21
2022-09-09T16:42:07.353Z,18.11
2022-09-09T16:44:38.175Z,18.04
2022-09-09T16:47:07.723Z,17.98
2022-09-09T16:49:37.352Z,17.92
2022-09-09T16:52:06.876Z,17.85
2022-09-09T16:54:36.261Z,17.81
2022-09-09T16:57:06.192Z,17.80
2022-09-09T16:59:36.994Z,17.68
2022-09-09T17:02:06.542Z,17.64
2022-09-09T17:04:35.950Z,17.54
2022-09-09T17:07:05.546Z,17.47
2022-09-09T17:09:35.017Z,17.37
2022-09-09T17:12:04.907Z,17.32
2022-09-09T17:14:34.369Z,17.24
2022-09-09T17:17:25.083Z,17.17
2022-09-09T17:19:55.385Z,17.08
2022-09-09T17:22:27.529Z,17.03
2022-09-09T17:24:57.105Z,16.94
2022-09-09T17:27:27.086Z,16.87
2022-09-09T17:29:56.721Z,16.78
2022-09-09T17:32:27.505Z,16.69
2022-09-09T17:34:56.994Z,16.62
2022-09-09T17:37:26.471Z,16.55
2022-09-09T17:39:55.918Z,16.51
2022-09-09T17:42:25.428Z,16.43
2022-09-09T17:44:55.590Z,16.35
2022-09-09T17:47:26.606Z,16.29
2022-09-09T17:49:56.376Z,16.26
2022-09-09T17:52:25.929Z,16.19
2022-09-09T17:54:57.597Z,16.14
2022-09-09T17:57:27.033Z,16.09
2022-09-09T17:59:56.468Z,16.05
2022-09-09T18:02:27.282Z,16.01
2022-09-09T18:04:57.415Z,15.97
2022-09-09T18:07:27.352Z,15.86
2022-09-09T18:09:56.748Z,15.80
2022-09-09T18:12:27.661Z,15.77
2022-09-09T18:15:01.012Z,15.71
2022-09-09T18:17:34.737Z,15.68
2022-09-09T18:20:05.890Z,15.63
2022-09-09T18:22:35.453Z,15.59
2022-09-09T18:25:06.832Z,15.55
2022-09-09T18:27:36.986Z,15.54
2022-09-09T18:30:10.091Z,15.48
2022-09-09T18:32:41.249Z,15.40
2022-09-09T18:35:10.950Z,15.37
2022-09-09T18:37:40.577Z,15.33
2022-09-09T18:40:10.756Z,15.35
2022-09-09T18:42:40.325Z,15.33
2022-09-09T18:45:10.415Z,15.30
2022-09-09T18:47:42.454Z,15.26
2022-09-09T18:50:12.528Z,15.25
2022-09-09T18:52:42.248Z,15.24
2022-09-09T18:55:12.611Z,15.24
2022-09-09T18:57:42.941Z,15.20
2022-09-09T19:00:14.115Z,14.93
2022-09-09T19:02:44.853Z,14.78
2022-09-09T19:05:14.359Z,14.59
2022-09-09T19:07:43.773Z,14.39
2022-09-09T19:10:13.358Z,14.21
2022-09-09T19:12:43.098Z,14.01
2022-09-09T19:15:12.592Z,13.86
2022-09-09T19:17:41.945Z,13.67
2022-09-09T19:20:13.095Z,13.49
2022-09-09T19:22:42.557Z,13.37
2022-09-09T19:25:12.149Z,13.28
2022-09-09T19:27:43.122Z,13.20
2022-09-09T19:30:14.039Z,13.21
2022-09-09T19:32:53.340Z,13.17
2022-09-09T19:35:24.994Z,13.12
2022-09-09T19:37:54.651Z,13.07
2022-09-09T19:40:24.297Z,13.00
2022-09-09T19:42:55.369Z,12.95
2022-09-09T19:45:25.118Z,12.88
2022-09-09T19:47:55.780Z,12.81
2022-09-09T19:50:28.179Z,12.76
2022-09-09T19:52:58.024Z,12.75
2022-09-09T19:55:28.951Z,12.71
2022-09-09T19:57:58.617Z,12.62
2022-09-09T20:00:28.151Z,12.53
2022-09-09T20:03:18.223Z,12.46
2022-09-09T20:05:50.301Z,12.40
2022-09-09T20:08:19.697Z,12.38
2022-09-09T20:10:53.631Z,12.36
2022-09-09T20:13:23.168Z,12.34
2022-09-09T20:16:01.291Z,12.34
2022-09-09T20:18:32.485Z,12.31
2022-09-09T20:21:08.094Z,12.32
2022-09-09T20:23:38.382Z,12.34
2022-09-09T20:26:12.814Z,12.36
2022-09-09T20:28:43.350Z,12.37
2022-09-09T20:31:19.608Z,12.41
2022-09-09T20:33:50.042Z,12.42
2022-09-09T20:36:25.111Z,12.44
2022-09-09T20:38:57.945Z,12.45
2022-09-09T20:41:30.833Z,12.48
2022-09-09T20:44:03.040Z,12.49
2022-09-09T20:46:36.757Z,12.52
2022-09-09T20:49:08.905Z,12.57
2022-09-09T20:51:41.220Z,12.63
2022-09-09T20:54:15.809Z,12.75
2022-09-09T20:56:47.016Z,12.92
2022-09-09T20:59:20.311Z,12.97
2022-09-09T21:01:50.296Z,13.05
2022-09-09T21:04:22.393Z,13.15
2022-09-09T21:06:53.281Z,13.26
2022-09-09T21:09:24.609Z,13.30
2022-09-09T21:11:54.450Z,13.29
2022-09-09T21:14:23.896Z,13.27
2022-09-09T21:16:54.402Z,13.32
2022-09-09T21:19:25.017Z,13.45
2022-09-09T21:21:57.052Z,13.46
2022-09-09T21:24:26.477Z,13.48
2022-09-09T21:26:56.485Z,13.38
2022-09-09T21:29:25.902Z,13.30
2022-09-09T21:31:55.773Z,13.21
2022-09-09T21:34:25.142Z,13.16
2022-09-09T21:36:56.000Z,13.10
2022-09-09T21:39:25.399Z,13.19
2022-09-09T21:41:54.822Z,13.12
2022-09-09T21:44:24.168Z,13.13
2022-09-09T21:46:53.591Z,13.11
2022-09-09T21:49:23.038Z,13.05
2022-09-09T21:51:52.473Z,13.05
2022-09-09T21:54:23.592Z,13.04
2022-09-09T21:56:54.308Z,13.07
2022-09-09T21:59:23.956Z,13.02
2022-09-09T22:01:53.437Z,12.99
2022-09-09T22:04:23.019Z,12.96
2022-09-09T22:06:52.396Z,12.98
2022-09-09T22:09:23.157Z,12.98
2022-09-09T22:11:53.557Z,13.00
2022-09-09T22:14:23.053Z,12.98
2022-09-09T22:16:52.537Z,12.94
2022-09-09T22:19:21.936Z,12.90
2022-09-09T22:21:51.349Z,12.86
2022-09-09T22:24:22.102Z,12.87
2022-09-09T22:26:55.543Z,12.94
2022-09-09T22:29:25.580Z,12.88
2022-09-09T22:31:56.157Z,12.88
2022-09-09T22:34:28.638Z,12.91
2022-09-09T22:36:57.989Z,12.89
2022-09-09T22:39:28.945Z,12.85
2022-09-09T22:41:58.876Z,12.83
2022-09-09T22:44:29.774Z,12.79
2022-09-09T22:46:59.248Z,12.77
2022-09-09T22:49:29.208Z,12.71
2022-09-09T22:51:58.588Z,12.72
2022-09-09T22:54:29.481Z,12.70
2022-09-09T22:56:58.846Z,12.76
2022-09-09T22:59:29.502Z,12.75
2022-09-09T23:01:58.898Z,12.70
2022-09-09T23:04:28.340Z,12.66
2022-09-09T23:06:57.801Z,12.62
2022-09-09T23:09:28.871Z,12.63
2022-09-09T23:11:58.850Z,12.58
2022-09-09T23:14:28.417Z,12.53
2022-09-09T23:16:57.769Z,12.49
2022-09-09T23:19:28.022Z,12.45
2022-09-09T23:21:58.256Z,12.38
2022-09-09T23:24:29.096Z,12.32
2022-09-09T23:26:58.428Z,12.28
2022-09-09T23:29:27.936Z,12.30
2022-09-09T23:31:57.340Z,12.32
2022-09-09T23:34:26.808Z,12.26
2022-09-09T23:36:56.595Z,12.21
2022-09-09T23:39:26.269Z,12.15
2022-09-09T23:41:57.480Z,12.18
2022-09-09T23:44:27.008Z,12.09
2022-09-09T23:46:56.389Z,12.06
2022-09-09T23:49:26.598Z,11.99
2022-09-09T23:51:55.942Z,11.97
2022-09-09T23:54:25.533Z,11.97
2022-09-09T23:56:56.381Z,11.98
2022-09-09T23:59:26.148Z,11.94
